sensor_id;sensor_type;location;lat;lon;timestamp;P1;durP1;ratioP1;P2;durP2;ratioP2
74152;SDS011;62505;46.070;14.492;2022-11-20T00:01:23;8.60;;;5.95;;
74152;SDS011;62505;46.070;14.492;2022-11-20T00:03:52;8.27;;;5.75;;
74152;SDS011;62505;46.070;14.492;2022-11-20T00:06:21;7.53;;;5.55;;
74152;SDS011;62505;46.070;14.492;2022-11-20T00:08:49;7.00;;;5.28;;
74152;SDS011;62505;46.070;14.492;2022-11-20T00:11:18;7.75;;;6.07;;
74152;SDS011;62505;46.070;14.492;2022-11-20T00:13:47;7.38;;;5.25;;
74152;SDS011;62505;46.070;14.492;2022-11-20T00:16:16;6.45;;;5.00;;
74152;SDS011;62505;46.070;14.492;2022-11-20T00:18:45;9.45;;;5.82;;
74152;SDS011;62505;46.070;14.492;2022-11-20T00:21:13;7.72;;;5.63;;
74152;SDS011;62505;46.070;14.492;2022-11-20T00:23:41;9.10;;;5.70;;
74152;SDS011;62505;46.070;14.492;2022-11-20T00:26:09;9.45;;;6.07;;
74152;SDS011;62505;46.070;14.492;2022-11-20T00:28:39;8.82;;;6.05;;
74152;SDS011;62505;46.070;14.492;2022-11-20T00:31:06;8.18;;;5.45;;
74152;SDS011;62505;46.070;14.492;2022-11-20T00:33:35;7.53;;;5.47;;
74152;SDS011;62505;46.070;14.492;2022-11-20T00:36:02;7.93;;;5.50;;
74152;SDS011;62505;46.070;14.492;2022-11-20T00:38:30;7.10;;;5.38;;
74152;SDS011;62505;46.070;14.492;2022-11-20T00:40:58;8.57;;;5.70;;
74152;SDS011;62505;46.070;14.492;2022-11-20T00:43:26;6.88;;;5.03;;
74152;SDS011;62505;46.070;14.492;2022-11-20T00:45:57;8.98;;;5.47;;
74152;SDS011;62505;46.070;14.492;2022-11-20T00:48:24;10.27;;;5.57;;
74152;SDS011;62505;46.070;14.492;2022-11-20T00:50:52;6.75;;;4.95;;
74152;SDS011;62505;46.070;14.492;2022-11-20T00:53:19;9.15;;;5.65;;
74152;SDS011;62505;46.070;14.492;2022-11-20T00:55:54;8.07;;;5.82;;
74152;SDS011;62505;46.070;14.492;2022-11-20T00:58:22;8.73;;;5.28;;
74152;SDS011;62505;46.070;14.492;2022-11-20T01:00:49;7.82;;;5.78;;
74152;SDS011;62505;46.070;14.492;2022-11-20T01:03:18;9.48;;;5.75;;
74152;SDS011;62505;46.070;14.492;2022-11-20T01:05:45;9.98;;;5.93;;
74152;SDS011;62505;46.070;14.492;2022-11-20T01:08:12;9.32;;;5.57;;
74152;SDS011;62505;46.070;14.492;2022-11-20T01:10:39;9.55;;;6.00;;
74152;SDS011;62505;46.070;14.492;2022-11-20T01:13:06;10.07;;;5.63;;
74152;SDS011;62505;46.070;14.492;2022-11-20T01:15:50;7.22;;;5.20;;
74152;SDS011;62505;46.070;14.492;2022-11-20T01:18:18;8.10;;;5.55;;
74152;SDS011;62505;46.070;14.492;2022-11-20T01:20:45;7.68;;;5.30;;
74152;SDS011;62505;46.070;14.492;2022-11-20T01:23:12;9.70;;;5.28;;
74152;SDS011;62505;46.070;14.492;2022-11-20T01:25:39;8.13;;;5.57;;
74152;SDS011;62505;46.070;14.492;2022-11-20T01:28:06;10.50;;;6.00;;
74152;SDS011;62505;46.070;14.492;2022-11-20T01:30:33;7.57;;;5.10;;
74152;SDS011;62505;46.070;14.492;2022-11-20T01:32:59;8.18;;;5.82;;
74152;SDS011;62505;46.070;14.492;2022-11-20T01:35:28;7.35;;;4.85;;
74152;SDS011;62505;46.070;14.492;2022-11-20T01:37:55;9.05;;;5.47;;
74152;SDS011;62505;46.070;14.492;2022-11-20T01:40:22;7.35;;;5.55;;
74152;SDS011;62505;46.070;14.492;2022-11-20T01:42:52;6.50;;;4.95;;
74152;SDS011;62505;46.070;14.492;2022-11-20T01:48:45;8.05;;;5.22;;
74152;SDS011;62505;46.070;14.492;2022-11-20T01:51:21;8.77;;;5.57;;
74152;SDS011;62505;46.070;14.492;2022-11-20T01:53:52;6.78;;;5.35;;
74152;SDS011;62505;46.070;14.492;2022-11-20T01:56:21;6.95;;;4.90;;
74152;SDS011;62505;46.070;14.492;2022-11-20T01:58:50;8.00;;;5.90;;
74152;SDS011;62505;46.070;14.492;2022-11-20T02:01:20;7.57;;;5.13;;
74152;SDS011;62505;46.070;14.492;2022-11-20T02:03:47;7.22;;;5.15;;
74152;SDS011;62505;46.070;14.492;2022-11-20T02:06:17;8.20;;;5.50;;
74152;SDS011;62505;46.070;14.492;2022-11-20T02:08:50;7.88;;;5.60;;
74152;SDS011;62505;46.070;14.492;2022-11-20T02:11:18;7.90;;;5.70;;
74152;SDS011;62505;46.070;14.492;2022-11-20T02:13:45;8.05;;;5.25;;
74152;SDS011;62505;46.070;14.492;2022-11-20T02:16:13;9.80;;;5.63;;
74152;SDS011;62505;46.070;14.492;2022-11-20T02:18:43;6.82;;;4.90;;
74152;SDS011;62505;46.070;14.492;2022-11-20T02:21:13;8.80;;;4.97;;
74152;SDS011;62505;46.070;14.492;2022-11-20T02:24:04;8.98;;;5.50;;
74152;SDS011;62505;46.070;14.492;2022-11-20T02:26:36;6.72;;;5.07;;
74152;SDS011;62505;46.070;14.492;2022-11-20T02:29:07;7.78;;;5.32;;
74152;SDS011;62505;46.070;14.492;2022-11-20T02:31:37;7.18;;;5.10;;
74152;SDS011;62505;46.070;14.492;2022-11-20T02:34:07;7.15;;;5.30;;
74152;SDS011;62505;46.070;14.492;2022-11-20T02:36:34;7.10;;;4.90;;
74152;SDS011;62505;46.070;14.492;2022-11-20T02:39:05;8.07;;;5.95;;
74152;SDS011;62505;46.070;14.492;2022-11-20T02:41:33;8.63;;;5.57;;
74152;SDS011;62505;46.070;14.492;2022-11-20T02:44:00;8.18;;;5.53;;
74152;SDS011;62505;46.070;14.492;2022-11-20T02:46:28;6.13;;;4.70;;
74152;SDS011;62505;46.070;14.492;2022-11-20T02:48:55;7.63;;;4.82;;
74152;SDS011;62505;46.070;14.492;2022-11-20T02:51:22;9.48;;;5.63;;
74152;SDS011;62505;46.070;14.492;2022-11-20T02:53:50;7.03;;;5.10;;
74152;SDS011;62505;46.070;14.492;2022-11-20T02:56:18;6.88;;;5.07;;
74152;SDS011;62505;46.070;14.492;2022-11-20T02:58:45;6.95;;;4.72;;
74152;SDS011;62505;46.070;14.492;2022-11-20T03:01:12;6.88;;;5.43;;
74152;SDS011;62505;46.070;14.492;2022-11-20T03:03:39;5.78;;;4.63;;
74152;SDS011;62505;46.070;14.492;2022-11-20T03:06:06;7.15;;;5.00;;
74152;SDS011;62505;46.070;14.492;2022-11-20T03:08:33;7.45;;;4.75;;
74152;SDS011;62505;46.070;14.492;2022-11-20T03:11:04;8.07;;;5.20;;
74152;SDS011;62505;46.070;14.492;2022-11-20T03:13:34;6.53;;;4.90;;
74152;SDS011;62505;46.070;14.492;2022-11-20T03:16:08;7.18;;;4.75;;
74152;SDS011;62505;46.070;14.492;2022-11-20T03:18:36;6.68;;;4.95;;
74152;SDS011;62505;46.070;14.492;2022-11-20T03:21:04;6.50;;;4.78;;
74152;SDS011;62505;46.070;14.492;2022-11-20T03:23:31;7.05;;;5.43;;
74152;SDS011;62505;46.070;14.492;2022-11-20T03:26:09;6.07;;;4.53;;
74152;SDS011;62505;46.070;14.492;2022-11-20T03:28:39;6.28;;;4.70;;
74152;SDS011;62505;46.070;14.492;2022-11-20T03:31:07;6.82;;;4.60;;
74152;SDS011;62505;46.070;14.492;2022-11-20T03:33:35;5.53;;;4.30;;
74152;SDS011;62505;46.070;14.492;2022-11-20T03:36:03;7.43;;;5.43;;
74152;SDS011;62505;46.070;14.492;2022-11-20T03:38:32;6.75;;;4.90;;
74152;SDS011;62505;46.070;14.492;2022-11-20T03:41:00;5.63;;;4.30;;
74152;SDS011;62505;46.070;14.492;2022-11-20T03:43:27;8.13;;;5.15;;
74152;SDS011;62505;46.070;14.492;2022-11-20T03:45:56;6.07;;;4.65;;
74152;SDS011;62505;46.070;14.492;2022-11-20T03:48:23;7.72;;;4.95;;
74152;SDS011;62505;46.070;14.492;2022-11-20T03:50:50;10.35;;;4.95;;
74152;SDS011;62505;46.070;14.492;2022-11-20T03:53:17;6.55;;;5.07;;
74152;SDS011;62505;46.070;14.492;2022-11-20T03:55:44;6.93;;;5.03;;
74152;SDS011;62505;46.070;14.492;2022-11-20T03:58:16;6.28;;;4.97;;
74152;SDS011;62505;46.070;14.492;2022-11-20T04:00:43;5.45;;;4.53;;
74152;SDS011;62505;46.070;14.492;2022-11-20T04:03:11;7.80;;;4.75;;
74152;SDS011;62505;46.070;14.492;2022-11-20T04:05:38;7.35;;;4.30;;
74152;SDS011;62505;46.070;14.492;2022-11-20T04:08:05;6.35;;;4.68;;
74152;SDS011;62505;46.070;14.492;2022-11-20T04:10:32;6.25;;;4.50;;
74152;SDS011;62505;46.070;14.492;2022-11-20T04:12:58;7.63;;;5.20;;
74152;SDS011;62505;46.070;14.492;2022-11-20T04:15:25;6.43;;;4.90;;
74152;SDS011;62505;46.070;14.492;2022-11-20T04:17:53;6.47;;;5.28;;
74152;SDS011;62505;46.070;14.492;2022-11-20T04:20:21;6.63;;;5.00;;
74152;SDS011;62505;46.070;14.492;2022-11-20T04:22:48;6.53;;;4.72;;
74152;SDS011;62505;46.070;14.492;2022-11-20T04:25:15;6.50;;;4.65;;
74152;SDS011;62505;46.070;14.492;2022-11-20T04:27:42;5.53;;;4.10;;
74152;SDS011;62505;46.070;14.492;2022-11-20T04:30:09;6.55;;;4.68;;
74152;SDS011;62505;46.070;14.492;2022-11-20T04:32:37;6.82;;;4.88;;
74152;SDS011;62505;46.070;14.492;2022-11-20T04:35:04;6.78;;;4.90;;
74152;SDS011;62505;46.070;14.492;2022-11-20T04:37:33;5.65;;;4.70;;
74152;SDS011;62505;46.070;14.492;2022-11-20T04:40:00;6.95;;;4.70;;
74152;SDS011;62505;46.070;14.492;2022-11-20T04:42:26;7.00;;;4.65;;
74152;SDS011;62505;46.070;14.492;2022-11-20T04:44:56;6.78;;;4.90;;
74152;SDS011;62505;46.070;14.492;2022-11-20T04:47:23;6.88;;;4.78;;
74152;SDS011;62505;46.070;14.492;2022-11-20T04:49:50;6.75;;;4.55;;
74152;SDS011;62505;46.070;14.492;2022-11-20T04:52:17;7.22;;;5.15;;
74152;SDS011;62505;46.070;14.492;2022-11-20T04:54:46;6.43;;;4.93;;
74152;SDS011;62505;46.070;14.492;2022-11-20T04:57:13;5.90;;;4.40;;
74152;SDS011;62505;46.070;14.492;2022-11-20T04:59:41;7.85;;;4.95;;
74152;SDS011;62505;46.070;14.492;2022-11-20T05:02:08;5.38;;;4.20;;
74152;SDS011;62505;46.070;14.492;2022-11-20T05:04:36;6.05;;;4.40;;
74152;SDS011;62505;46.070;14.492;2022-11-20T05:07:03;6.18;;;4.30;;
74152;SDS011;62505;46.070;14.492;2022-11-20T05:09:30;6.22;;;4.70;;
74152;SDS011;62505;46.070;14.492;2022-11-20T05:11:58;6.85;;;4.90;;
74152;SDS011;62505;46.070;14.492;2022-11-20T05:14:25;5.70;;;4.68;;
74152;SDS011;62505;46.070;14.492;2022-11-20T05:16:52;6.20;;;4.85;;
74152;SDS011;62505;46.070;14.492;2022-11-20T05:19:19;5.93;;;4.10;;
74152;SDS011;62505;46.070;14.492;2022-11-20T05:21:46;5.65;;;3.78;;
74152;SDS011;62505;46.070;14.492;2022-11-20T05:24:13;6.10;;;4.70;;
74152;SDS011;62505;46.070;14.492;2022-11-20T05:26:40;6.65;;;4.38;;
74152;SDS011;62505;46.070;14.492;2022-11-20T05:29:10;5.65;;;4.45;;
74152;SDS011;62505;46.070;14.492;2022-11-20T05:31:38;5.80;;;4.45;;
74152;SDS011;62505;46.070;14.492;2022-11-20T05:34:06;6.35;;;4.50;;
74152;SDS011;62505;46.070;14.492;2022-11-20T05:36:33;6.38;;;4.50;;
74152;SDS011;62505;46.070;14.492;2022-11-20T05:39:00;6.13;;;4.30;;
74152;SDS011;62505;46.070;14.492;2022-11-20T05:41:27;5.95;;;4.20;;
74152;SDS011;62505;46.070;14.492;2022-11-20T05:43:55;5.00;;;4.15;;
74152;SDS011;62505;46.070;14.492;2022-11-20T05:46:25;7.90;;;4.35;;
74152;SDS011;62505;46.070;14.492;2022-11-20T05:48:52;5.07;;;4.32;;
74152;SDS011;62505;46.070;14.492;2022-11-20T05:51:19;5.78;;;4.13;;
74152;SDS011;62505;46.070;14.492;2022-11-20T05:53:46;5.28;;;4.45;;
74152;SDS011;62505;46.070;14.492;2022-11-20T05:56:13;7.68;;;4.22;;
74152;SDS011;62505;46.070;14.492;2022-11-20T05:58:42;5.53;;;4.18;;
74152;SDS011;62505;46.070;14.492;2022-11-20T06:01:10;6.03;;;4.32;;
74152;SDS011;62505;46.070;14.492;2022-11-20T06:03:40;5.82;;;4.93;;
74152;SDS011;62505;46.070;14.492;2022-11-20T06:06:11;6.10;;;4.13;;
74152;SDS011;62505;46.070;14.492;2022-11-20T06:08:38;6.43;;;4.20;;
74152;SDS011;62505;46.070;14.492;2022-11-20T06:11:05;6.80;;;4.45;;
74152;SDS011;62505;46.070;14.492;2022-11-20T06:13:33;6.28;;;3.78;;
74152;SDS011;62505;46.070;14.492;2022-11-20T06:16:00;6.63;;;4.00;;
74152;SDS011;62505;46.070;14.492;2022-11-20T06:18:28;5.95;;;4.45;;
74152;SDS011;62505;46.070;14.492;2022-11-20T06:21:00;5.63;;;3.83;;
74152;SDS011;62505;46.070;14.492;2022-11-20T06:23:29;5.70;;;4.10;;
74152;SDS011;62505;46.070;14.492;2022-11-20T06:25:56;4.70;;;3.90;;
74152;SDS011;62505;46.070;14.492;2022-11-20T06:28:24;5.00;;;3.92;;
74152;SDS011;62505;46.070;14.492;2022-11-20T06:30:51;5.43;;;4.25;;
74152;SDS011;62505;46.070;14.492;2022-11-20T06:33:18;5.40;;;3.85;;
74152;SDS011;62505;46.070;14.492;2022-11-20T06:35:45;6.25;;;4.25;;
74152;SDS011;62505;46.070;14.492;2022-11-20T06:38:13;4.65;;;3.70;;
74152;SDS011;62505;46.070;14.492;2022-11-20T06:40:40;4.80;;;3.53;;
74152;SDS011;62505;46.070;14.492;2022-11-20T06:43:07;5.53;;;3.90;;
74152;SDS011;62505;46.070;14.492;2022-11-20T06:45:34;5.32;;;3.97;;
74152;SDS011;62505;46.070;14.492;2022-11-20T06:48:01;4.97;;;4.32;;
74152;SDS011;62505;46.070;14.492;2022-11-20T06:50:28;5.10;;;3.80;;
74152;SDS011;62505;46.070;14.492;2022-11-20T06:52:55;5.13;;;3.97;;
74152;SDS011;62505;46.070;14.492;2022-11-20T06:55:23;5.22;;;4.00;;
74152;SDS011;62505;46.070;14.492;2022-11-20T06:57:50;6.05;;;3.90;;
74152;SDS011;62505;46.070;14.492;2022-11-20T07:00:17;4.32;;;3.60;;
74152;SDS011;62505;46.070;14.492;2022-11-20T07:02:44;5.00;;;3.53;;
74152;SDS011;62505;46.070;14.492;2022-11-20T07:05:11;6.43;;;3.70;;
74152;SDS011;62505;46.070;14.492;2022-11-20T07:07:38;6.28;;;4.05;;
74152;SDS011;62505;46.070;14.492;2022-11-20T07:10:05;4.60;;;3.83;;
74152;SDS011;62505;46.070;14.492;2022-11-20T07:12:34;4.97;;;3.90;;
74152;SDS011;62505;46.070;14.492;2022-11-20T07:15:01;5.40;;;3.88;;
74152;SDS011;62505;46.070;14.492;2022-11-20T07:17:28;5.10;;;3.80;;
74152;SDS011;62505;46.070;14.492;2022-11-20T07:19:55;4.25;;;3.67;;
74152;SDS011;62505;46.070;14.492;2022-11-20T07:22:22;4.82;;;3.63;;
74152;SDS011;62505;46.070;14.492;2022-11-20T07:24:49;5.05;;;3.97;;
74152;SDS011;62505;46.070;14.492;2022-11-20T07:27:15;4.95;;;3.92;;
74152;SDS011;62505;46.070;14.492;2022-11-20T07:29:44;4.90;;;3.70;;
74152;SDS011;62505;46.070;14.492;2022-11-20T07:32:11;4.75;;;3.40;;
74152;SDS011;62505;46.070;14.492;2022-11-20T07:34:37;5.25;;;3.65;;
74152;SDS011;62505;46.070;14.492;2022-11-20T07:37:04;5.15;;;3.67;;
74152;SDS011;62505;46.070;14.492;2022-11-20T07:39:37;4.30;;;3.35;;
74152;SDS011;62505;46.070;14.492;2022-11-20T07:42:05;5.80;;;3.90;;
74152;SDS011;62505;46.070;14.492;2022-11-20T07:44:33;5.60;;;2.70;;
74152;SDS011;62505;46.070;14.492;2022-11-20T07:47:01;3.55;;;2.00;;
74152;SDS011;62505;46.070;14.492;2022-11-20T07:49:28;2.15;;;1.65;;
74152;SDS011;62505;46.070;14.492;2022-11-20T07:51:56;3.08;;;2.03;;
74152;SDS011;62505;46.070;14.492;2022-11-20T07:54:23;2.35;;;1.95;;
74152;SDS011;62505;46.070;14.492;2022-11-20T07:56:50;3.28;;;2.03;;
74152;SDS011;62505;46.070;14.492;2022-11-20T07:59:17;4.07;;;2.28;;
74152;SDS011;62505;46.070;14.492;2022-11-20T08:01:44;3.38;;;2.30;;
74152;SDS011;62505;46.070;14.492;2022-11-20T08:04:12;3.63;;;2.30;;
74152;SDS011;62505;46.070;14.492;2022-11-20T08:06:41;3.63;;;2.30;;
74152;SDS011;62505;46.070;14.492;2022-11-20T08:09:08;4.75;;;2.55;;
74152;SDS011;62505;46.070;14.492;2022-11-20T08:11:35;2.97;;;2.35;;
74152;SDS011;62505;46.070;14.492;2022-11-20T08:14:19;4.25;;;2.47;;
74152;SDS011;62505;46.070;14.492;2022-11-20T08:16:46;3.58;;;2.15;;
74152;SDS011;62505;46.070;14.492;2022-11-20T08:19:16;3.47;;;2.20;;
74152;SDS011;62505;46.070;14.492;2022-11-20T08:21:43;3.33;;;2.50;;
74152;SDS011;62505;46.070;14.492;2022-11-20T08:24:10;6.25;;;2.92;;
74152;SDS011;62505;46.070;14.492;2022-11-20T08:26:38;3.80;;;2.72;;
74152;SDS011;62505;46.070;14.492;2022-11-20T08:29:06;6.93;;;2.55;;
74152;SDS011;62505;46.070;14.492;2022-11-20T08:31:33;5.22;;;2.83;;
74152;SDS011;62505;46.070;14.492;2022-11-20T08:34:00;4.68;;;2.28;;
74152;SDS011;62505;46.070;14.492;2022-11-20T08:36:28;3.80;;;2.67;;
74152;SDS011;62505;46.070;14.492;2022-11-20T08:38:58;4.80;;;2.70;;
74152;SDS011;62505;46.070;14.492;2022-11-20T08:41:25;3.28;;;2.55;;
74152;SDS011;62505;46.070;14.492;2022-11-20T08:43:53;4.15;;;2.50;;
74152;SDS011;62505;46.070;14.492;2022-11-20T08:46:22;3.00;;;2.22;;
74152;SDS011;62505;46.070;14.492;2022-11-20T08:48:50;6.07;;;2.80;;
74152;SDS011;62505;46.070;14.492;2022-11-20T08:51:17;2.90;;;2.30;;
74152;SDS011;62505;46.070;14.492;2022-11-20T08:53:45;4.63;;;2.60;;
74152;SDS011;62505;46.070;14.492;2022-11-20T08:56:14;4.00;;;2.53;;
74152;SDS011;62505;46.070;14.492;2022-11-20T08:58:41;4.18;;;2.67;;
74152;SDS011;62505;46.070;14.492;2022-11-20T09:01:08;3.33;;;2.38;;
74152;SDS011;62505;46.070;14.492;2022-11-20T09:03:35;3.97;;;2.22;;
74152;SDS011;62505;46.070;14.492;2022-11-20T09:06:03;2.53;;;2.10;;
74152;SDS011;62505;46.070;14.492;2022-11-20T09:08:32;4.25;;;2.35;;
74152;SDS011;62505;46.070;14.492;2022-11-20T09:11:02;3.75;;;2.25;;
74152;SDS011;62505;46.070;14.492;2022-11-20T09:13:30;5.05;;;2.60;;
74152;SDS011;62505;46.070;14.492;2022-11-20T09:15:59;6.22;;;2.50;;
74152;SDS011;62505;46.070;14.492;2022-11-20T09:18:27;4.25;;;3.13;;
74152;SDS011;62505;46.070;14.492;2022-11-20T09:20:56;3.55;;;2.63;;
74152;SDS011;62505;46.070;14.492;2022-11-20T09:23:24;5.43;;;2.65;;
74152;SDS011;62505;46.070;14.492;2022-11-20T09:25:52;3.78;;;2.35;;
74152;SDS011;62505;46.070;14.492;2022-11-20T09:28:21;3.80;;;2.58;;
74152;SDS011;62505;46.070;14.492;2022-11-20T09:30:48;3.85;;;2.53;;
74152;SDS011;62505;46.070;14.492;2022-11-20T09:33:15;3.72;;;2.45;;
74152;SDS011;62505;46.070;14.492;2022-11-20T09:35:42;4.00;;;2.40;;
74152;SDS011;62505;46.070;14.492;2022-11-20T09:38:09;3.05;;;2.38;;
74152;SDS011;62505;46.070;14.492;2022-11-20T09:40:38;4.22;;;2.65;;
74152;SDS011;62505;46.070;14.492;2022-11-20T09:43:10;3.58;;;2.42;;
74152;SDS011;62505;46.070;14.492;2022-11-20T09:45:47;3.38;;;2.58;;
74152;SDS011;62505;46.070;14.492;2022-11-20T09:51:34;3.30;;;2.63;;
74152;SDS011;62505;46.070;14.492;2022-11-20T09:54:10;3.78;;;2.67;;
74152;SDS011;62505;46.070;14.492;2022-11-20T09:56:42;5.13;;;2.70;;
74152;SDS011;62505;46.070;14.492;2022-11-20T09:59:15;3.05;;;2.30;;
74152;SDS011;62505;46.070;14.492;2022-11-20T10:01:54;3.55;;;2.35;;
74152;SDS011;62505;46.070;14.492;2022-11-20T10:04:22;3.58;;;2.47;;
74152;SDS011;62505;46.070;14.492;2022-11-20T10:06:51;4.25;;;2.33;;
74152;SDS011;62505;46.070;14.492;2022-11-20T10:09:27;4.00;;;2.70;;
74152;SDS011;62505;46.070;14.492;2022-11-20T10:12:01;3.55;;;2.55;;
74152;SDS011;62505;46.070;14.492;2022-11-20T10:14:41;5.65;;;2.72;;
74152;SDS011;62505;46.070;14.492;2022-11-20T10:17:20;4.70;;;2.92;;
74152;SDS011;62505;46.070;14.492;2022-11-20T10:19:59;5.05;;;2.60;;
74152;SDS011;62505;46.070;14.492;2022-11-20T10:22:40;5.57;;;2.58;;
74152;SDS011;62505;46.070;14.492;2022-11-20T10:25:18;3.38;;;2.40;;
74152;SDS011;62505;46.070;14.492;2022-11-20T10:27:52;4.85;;;2.92;;
74152;SDS011;62505;46.070;14.492;2022-11-20T10:30:41;3.88;;;2.50;;
74152;SDS011;62505;46.070;14.492;2022-11-20T10:33:13;6.22;;;2.67;;
74152;SDS011;62505;46.070;14.492;2022-11-20T10:35:43;3.83;;;2.60;;
74152;SDS011;62505;46.070;14.492;2022-11-20T10:38:16;4.35;;;2.90;;
74152;SDS011;62505;46.070;14.492;2022-11-20T10:40:48;5.43;;;3.25;;
74152;SDS011;62505;46.070;14.492;2022-11-20T10:43:19;5.35;;;3.10;;
74152;SDS011;62505;46.070;14.492;2022-11-20T10:45:52;5.50;;;2.75;;
74152;SDS011;62505;46.070;14.492;2022-11-20T10:48:25;4.88;;;2.97;;
74152;SDS011;62505;46.070;14.492;2022-11-20T10:50:55;5.70;;;2.70;;
74152;SDS011;62505;46.070;14.492;2022-11-20T10:53:42;6.13;;;3.13;;
74152;SDS011;62505;46.070;14.492;2022-11-20T10:56:19;3.88;;;2.30;;
74152;SDS011;62505;46.070;14.492;2022-11-20T10:58:52;6.70;;;3.25;;
74152;SDS011;62505;46.070;14.492;2022-11-20T11:01:30;3.33;;;2.40;;
74152;SDS011;62505;46.070;14.492;2022-11-20T11:04:08;8.77;;;2.65;;
74152;SDS011;62505;46.070;14.492;2022-11-20T11:06:50;5.65;;;3.00;;
74152;SDS011;62505;46.070;14.492;2022-11-20T11:09:21;3.15;;;2.30;;
74152;SDS011;62505;46.070;14.492;2022-11-20T11:11:58;5.25;;;2.55;;
74152;SDS011;62505;46.070;14.492;2022-11-20T11:14:25;4.20;;;2.20;;
74152;SDS011;62505;46.070;14.492;2022-11-20T11:16:52;4.57;;;2.72;;
74152;SDS011;62505;46.070;14.492;2022-11-20T11:19:22;3.45;;;2.45;;
74152;SDS011;62505;46.070;14.492;2022-11-20T11:21:51;6.97;;;2.67;;
74152;SDS011;62505;46.070;14.492;2022-11-20T11:24:22;4.70;;;2.90;;
74152;SDS011;62505;46.070;14.492;2022-11-20T11:26:54;4.20;;;2.58;;
74152;SDS011;62505;46.070;14.492;2022-11-20T11:29:23;3.45;;;2.33;;
74152;SDS011;62505;46.070;14.492;2022-11-20T11:32:02;6.15;;;2.28;;
74152;SDS011;62505;46.070;14.492;2022-11-20T11:34:32;6.20;;;3.08;;
74152;SDS011;62505;46.070;14.492;2022-11-20T11:36:59;4.25;;;2.50;;
74152;SDS011;62505;46.070;14.492;2022-11-20T11:39:28;7.53;;;2.90;;
74152;SDS011;62505;46.070;14.492;2022-11-20T11:41:56;4.78;;;2.88;;
74152;SDS011;62505;46.070;14.492;2022-11-20T11:44:24;3.72;;;2.53;;
74152;SDS011;62505;46.070;14.492;2022-11-20T11:47:24;7.82;;;2.47;;
74152;SDS011;62505;46.070;14.492;2022-11-20T11:50:07;3.55;;;2.13;;
74152;SDS011;62505;46.070;14.492;2022-11-20T11:52:43;6.63;;;2.88;;
74152;SDS011;62505;46.070;14.492;2022-11-20T11:55:14;3.20;;;2.58;;
74152;SDS011;62505;46.070;14.492;2022-11-20T11:57:46;4.82;;;3.03;;
74152;SDS011;62505;46.070;14.492;2022-11-20T12:00:19;4.10;;;2.83;;
74152;SDS011;62505;46.070;14.492;2022-11-20T12:02:52;4.72;;;2.83;;
74152;SDS011;62505;46.070;14.492;2022-11-20T12:05:29;4.22;;;2.60;;
74152;SDS011;62505;46.070;14.492;2022-11-20T12:08:02;4.07;;;2.45;;
74152;SDS011;62505;46.070;14.492;2022-11-20T12:10:36;5.88;;;3.10;;
74152;SDS011;62505;46.070;14.492;2022-11-20T12:13:10;4.22;;;2.70;;
74152;SDS011;62505;46.070;14.492;2022-11-20T12:15:49;3.53;;;2.13;;
74152;SDS011;62505;46.070;14.492;2022-11-20T12:18:17;7.88;;;2.88;;
74152;SDS011;62505;46.070;14.492;2022-11-20T12:20:48;3.47;;;2.45;;
74152;SDS011;62505;46.070;14.492;2022-11-20T12:23:27;5.45;;;2.60;;
74152;SDS011;62505;46.070;14.492;2022-11-20T12:26:00;3.90;;;2.90;;
74152;SDS011;62505;46.070;14.492;2022-11-20T12:28:34;3.50;;;2.42;;
74152;SDS011;62505;46.070;14.492;2022-11-20T12:31:13;5.95;;;2.90;;
74152;SDS011;62505;46.070;14.492;2022-11-20T12:34:03;3.70;;;2.60;;
74152;SDS011;62505;46.070;14.492;2022-11-20T12:36:44;4.57;;;2.55;;
74152;SDS011;62505;46.070;14.492;2022-11-20T12:39:28;6.68;;;3.10;;
74152;SDS011;62505;46.070;14.492;2022-11-20T12:42:16;4.03;;;2.63;;
74152;SDS011;62505;46.070;14.492;2022-11-20T12:45:22;3.95;;;2.72;;
74152;SDS011;62505;46.070;14.492;2022-11-20T12:51:21;4.90;;;2.53;;
74152;SDS011;62505;46.070;14.492;2022-11-20T12:56:57;4.10;;;2.42;;
74152;SDS011;62505;46.070;14.492;2022-11-20T12:59:32;4.35;;;2.45;;
74152;SDS011;62505;46.070;14.492;2022-11-20T13:02:17;4.88;;;2.60;;
74152;SDS011;62505;46.070;14.492;2022-11-20T13:05:02;3.85;;;2.63;;
74152;SDS011;62505;46.070;14.492;2022-11-20T13:07:45;3.58;;;2.70;;
74152;SDS011;62505;46.070;14.492;2022-11-20T13:10:16;5.93;;;2.63;;
74152;SDS011;62505;46.070;14.492;2022-11-20T13:12:50;5.57;;;2.40;;
74152;SDS011;62505;46.070;14.492;2022-11-20T13:15:26;2.95;;;2.30;;
74152;SDS011;62505;46.070;14.492;2022-11-20T13:18:03;4.18;;;2.53;;
74152;SDS011;62505;46.070;14.492;2022-11-20T13:20:34;4.80;;;2.75;;
74152;SDS011;62505;46.070;14.492;2022-11-20T13:23:07;3.63;;;2.55;;
74152;SDS011;62505;46.070;14.492;2022-11-20T13:25:36;4.00;;;2.38;;
74152;SDS011;62505;46.070;14.492;2022-11-20T13:28:04;4.75;;;2.55;;
74152;SDS011;62505;46.070;14.492;2022-11-20T13:30:52;3.42;;;2.22;;
74152;SDS011;62505;46.070;14.492;2022-11-20T13:33:22;5.43;;;2.58;;
74152;SDS011;62505;46.070;14.492;2022-11-20T13:35:57;3.88;;;2.70;;
74152;SDS011;62505;46.070;14.492;2022-11-20T13:38:26;4.70;;;2.65;;
74152;SDS011;62505;46.070;14.492;2022-11-20T13:40:55;4.05;;;2.70;;
74152;SDS011;62505;46.070;14.492;2022-11-20T13:43:27;3.45;;;2.53;;
74152;SDS011;62505;46.070;14.492;2022-11-20T13:46:01;3.53;;;2.38;;
74152;SDS011;62505;46.070;14.492;2022-11-20T13:48:31;4.38;;;2.55;;
74152;SDS011;62505;46.070;14.492;2022-11-20T13:51:03;5.28;;;2.42;;
74152;SDS011;62505;46.070;14.492;2022-11-20T13:53:52;3.58;;;2.60;;
74152;SDS011;62505;46.070;14.492;2022-11-20T13:56:50;3.53;;;2.22;;
74152;SDS011;62505;46.070;14.492;2022-11-20T13:59:32;4.13;;;2.30;;
74152;SDS011;62505;46.070;14.492;2022-11-20T14:02:14;5.03;;;2.90;;
74152;SDS011;62505;46.070;14.492;2022-11-20T14:04:42;5.93;;;2.88;;
74152;SDS011;62505;46.070;14.492;2022-11-20T14:07:11;3.63;;;2.33;;
74152;SDS011;62505;46.070;14.492;2022-11-20T14:09:39;4.40;;;2.55;;
74152;SDS011;62505;46.070;14.492;2022-11-20T14:12:18;3.47;;;2.65;;
74152;SDS011;62505;46.070;14.492;2022-11-20T14:14:47;3.50;;;2.38;;
74152;SDS011;62505;46.070;14.492;2022-11-20T14:17:17;3.55;;;2.47;;
74152;SDS011;62505;46.070;14.492;2022-11-20T14:19:45;3.55;;;2.25;;
74152;SDS011;62505;46.070;14.492;2022-11-20T14:22:16;4.03;;;2.40;;
74152;SDS011;62505;46.070;14.492;2022-11-20T14:24:45;3.97;;;2.65;;
74152;SDS011;62505;46.070;14.492;2022-11-20T14:27:13;3.92;;;2.53;;
74152;SDS011;62505;46.070;14.492;2022-11-20T14:29:43;3.22;;;2.33;;
74152;SDS011;62505;46.070;14.492;2022-11-20T14:32:14;5.30;;;2.75;;
74152;SDS011;62505;46.070;14.492;2022-11-20T14:34:43;4.15;;;2.55;;
74152;SDS011;62505;46.070;14.492;2022-11-20T14:37:12;4.07;;;2.47;;
74152;SDS011;62505;46.070;14.492;2022-11-20T14:39:50;4.90;;;2.55;;
74152;SDS011;62505;46.070;14.492;2022-11-20T14:42:19;5.60;;;2.60;;
74152;SDS011;62505;46.070;14.492;2022-11-20T14:44:49;3.08;;;2.22;;
74152;SDS011;62505;46.070;14.492;2022-11-20T14:47:17;3.95;;;2.78;;
74152;SDS011;62505;46.070;14.492;2022-11-20T14:49:48;4.05;;;2.35;;
74152;SDS011;62505;46.070;14.492;2022-11-20T14:52:16;3.80;;;2.20;;
74152;SDS011;62505;46.070;14.492;2022-11-20T14:54:45;3.65;;;2.03;;
74152;SDS011;62505;46.070;14.492;2022-11-20T14:57:20;4.05;;;2.40;;
74152;SDS011;62505;46.070;14.492;2022-11-20T15:00:04;4.03;;;2.80;;
74152;SDS011;62505;46.070;14.492;2022-11-20T15:02:32;4.75;;;2.55;;
74152;SDS011;62505;46.070;14.492;2022-11-20T15:05:00;3.42;;;2.35;;